Time;durP1;ratioP1;P1;durP2;ratioP2;P2;SDS_P1;SDS_P2;PMS_P1;PMS_P2;Temp;Humidity;BMP_temperature;BMP_pressure;BME280_temperature;BME280_humidity;BME280_pressure;Samples;Min_cycle;Max_cycle;Signal;HPM_P1;HPM_P2
2022/01/16 00:01:07;;;;;;;15.23;6.53;;;;;;;2.00;54.74;100940.09;4398409;32;33869;-85
2022/01/16 00:06:36;;;;;;;12.73;6.12;;;;;;;2.05;54.28;100937.00;4412000;32;32007;-85
2022/01/16 00:09:05;;;;;;;16.05;6.70;;;;;;;1.89;54.62;100932.00;4394898;32;31678;-85
2022/01/16 00:11:37;;;;;;;16.17;6.85;;;;;;;1.65;55.23;100913.16;4407083;32;32323;-85
2022/01/16 00:14:08;;;;;;;18.25;7.28;;;;;;;1.54;55.40;100916.72;4407614;32;35310;-85
2022/01/16 00:16:39;;;;;;;18.92;8.93;;;;;;;1.61;55.48;100907.13;4419871;32;32220;-85
2022/01/16 00:19:09;;;;;;;18.52;8.20;;;;;;;1.81;54.77;100896.56;4394904;32;33999;-84
2022/01/16 00:21:43;;;;;;;21.80;6.78;;;;;;;1.89;54.34;100924.75;4419762;32;33314;-84
2022/01/16 00:24:13;;;;;;;18.87;7.30;;;;;;;1.43;55.54;100923.94;4407239;32;34415;-85
2022/01/16 00:26:43;;;;;;;17.00;7.35;;;;;;;1.49;55.50;100931.56;4394336;32;32915;-85
2022/01/16 00:29:13;;;;;;;18.98;8.27;;;;;;;1.55;55.26;100959.00;4407102;32;34335;-85
2022/01/16 00:31:47;;;;;;;22.08;6.55;;;;;;;1.74;54.83;100954.88;4406349;32;33733;-85
2022/01/16 00:34:17;;;;;;;18.62;7.87;;;;;;;1.68;55.02;100912.91;4419949;32;34327;-84
2022/01/16 00:36:49;;;;;;;21.00;8.93;;;;;;;1.36;55.75;100923.56;4406955;32;34609;-85
2022/01/16 00:39:19;;;;;;;24.12;10.50;;;;;;;1.53;55.36;100930.34;4399483;32;31807;-84
2022/01/16 00:41:51;;;;;;;32.38;12.88;;;;;;;1.64;55.13;100931.25;4392442;32;32203;-81
2022/01/16 00:44:21;;;;;;;29.37;11.63;;;;;;;1.76;54.71;100917.72;4405069;32;32968;-81
2022/01/16 00:46:51;;;;;;;26.77;10.40;;;;;;;1.75;54.61;100926.81;4392084;32;32500;-81
2022/01/16 00:49:22;;;;;;;23.65;10.13;;;;;;;1.29;55.56;100890.75;4405099;32;32292;-80
2022/01/16 00:51:50;;;;;;;20.40;8.93;;;;;;;1.34;55.53;100901.19;4392666;32;32778;-80
2022/01/16 00:54:20;;;;;;;27.42;10.75;;;;;;;1.34;55.45;100895.78;4381051;32;33450;-80
2022/01/16 00:56:50;;;;;;;23.38;10.57;;;;;;;1.54;54.73;100921.25;4405037;32;33701;-83
2022/01/16 00:59:21;;;;;;;21.30;8.82;;;;;;;1.58;54.59;100923.59;4407577;32;33621;-82
2022/01/16 01:01:49;;;;;;;20.37;9.02;;;;;;;1.49;54.66;100899.97;4407585;32;32002;-83
2022/01/16 01:04:20;;;;;;;20.83;7.82;;;;;;;1.38;55.06;100904.50;4407650;32;34316;-82
2022/01/16 01:06:50;;;;;;;18.40;7.75;;;;;;;0.98;56.26;100916.59;4395271;32;32371;-83
2022/01/16 01:09:20;;;;;;;18.10;7.62;;;;;;;1.32;55.34;100913.97;4408048;32;32307;-83
2022/01/16 01:11:50;;;;;;;23.95;8.50;;;;;;;1.39;55.12;100934.12;4395215;32;32418;-83
2022/01/16 01:14:26;;;;;;;16.50;7.78;;;;;;;0.88;56.24;100931.78;4395397;32;32946;-83
2022/01/16 01:16:59;;;;;;;24.42;9.95;;;;;;;0.96;55.97;100942.88;4397203;32;32920;-83
2022/01/16 01:19:32;;;;;;;20.83;10.55;;;;;;;1.12;55.51;100888.50;4410677;32;33650;-83
2022/01/16 01:22:11;;;;;;;20.88;10.15;;;;;;;1.20;55.16;100821.19;4409510;32;32097;-82
2022/01/16 01:24:43;;;;;;;21.25;9.32;;;;;;;1.10;55.53;100849.06;4410620;32;34374;-82
2022/01/16 01:27:20;;;;;;;18.40;8.60;;;;;;;0.80;56.48;100855.84;4412100;32;35010;-81
2022/01/16 01:29:56;;;;;;;17.02;8.60;;;;;;;0.96;55.86;100840.19;4428252;32;31774;-79
2022/01/16 01:32:27;;;;;;;21.65;8.75;;;;;;;1.17;55.24;100856.56;4419507;32;33985;-79
2022/01/16 01:34:55;;;;;;;25.30;8.98;;;;;;;1.24;54.87;100886.69;4418798;32;34561;-81
2022/01/16 01:37:26;;;;;;;22.70;9.05;;;;;;;1.27;54.64;100881.03;4421461;32;34541;-80
2022/01/16 01:39:54;;;;;;;22.20;8.65;;;;;;;0.88;55.39;100918.28;4418844;32;34093;-82
2022/01/16 01:42:32;;;;;;;22.98;8.23;;;;;;;0.99;55.45;100899.41;4388492;32;34120;-82
2022/01/16 01:53:26;;;;;;;24.30;10.27;;;;;;;0.66;56.49;100918.19;4409518;32;32209;-83
2022/01/16 01:55:57;;;;;;;19.65;9.25;;;;;;;1.08;55.06;100900.53;4407337;32;34097;-82
2022/01/16 01:58:28;;;;;;;22.63;9.30;;;;;;;0.98;55.19;100897.69;4406963;32;33281;-82
2022/01/16 02:00:56;;;;;;;27.00;9.50;;;;;;;0.95;55.03;100905.16;4407730;32;32293;-82
2022/01/16 02:03:33;;;;;;;22.53;9.77;;;;;;;0.84;55.26;100895.16;4420176;32;35214;-82
2022/01/16 02:06:03;;;;;;;23.52;10.65;;;;;;;0.92;55.12;100905.41;4408703;32;32829;-82
2022/01/16 02:08:32;;;;;;;21.83;9.93;;;;;;;0.75;55.56;100900.41;4394502;32;32452;-82
2022/01/16 02:11:04;;;;;;;28.75;10.30;;;;;;;0.55;56.45;100910.91;4420239;32;31673;-82
2022/01/16 02:13:46;;;;;;;22.52;10.68;;;;;;;0.78;55.76;100901.03;4407463;32;34289;-82
2022/01/16 02:35:47;;;;;;;25.27;11.17;;;;;;;0.84;54.67;100933.00;4409021;32;33654;-82
2022/01/16 02:38:21;;;;;;;29.97;13.50;;;;;;;0.13;56.92;100944.63;4407754;32;35212;-83
2022/01/16 02:41:02;;;;;;;33.95;13.62;;;;;;;0.63;55.40;100923.84;4406942;32;32354;-83
2022/01/16 02:43:33;;;;;;;30.85;14.65;;;;;;;0.77;54.96;100931.75;4395724;32;33327;-82
2022/01/16 02:48:47;;;;;;;32.17;14.50;;;;;;;0.64;55.05;100933.66;4408309;32;33623;-83
2022/01/16 02:51:21;;;;;;;30.75;13.02;;;;;;;0.77;54.76;100941.69;4407361;32;34726;-83
2022/01/16 02:53:53;;;;;;;32.23;12.40;;;;;;;0.18;56.06;100928.97;4406996;32;33192;-82
2022/01/16 02:56:22;;;;;;;23.15;11.85;;;;;;;0.47;55.63;100928.66;4407053;32;32824;-83
2022/01/16 02:58:51;;;;;;;24.67;10.57;;;;;;;0.40;55.60;100920.16;4394048;32;33427;-83
2022/01/16 03:01:19;;;;;;;24.63;10.13;;;;;;;0.41;55.50;100918.31;4406861;32;34113;-83
2022/01/16 03:03:47;;;;;;;20.53;7.67;;;;;;;0.51;55.39;100914.81;4407165;32;33240;-82
2022/01/16 03:06:17;;;;;;;20.10;7.90;;;;;;;0.49;55.40;100919.47;4406596;32;33124;-82
2022/01/16 03:08:48;;;;;;;21.65;8.30;;;;;;;0.41;55.40;100915.59;4416608;32;34114;-82
2022/01/16 03:11:35;;;;;;;14.53;7.20;;;;;;;0.07;56.38;100912.69;4424374;32;33446;-83
2022/01/16 03:14:06;;;;;;;24.70;8.80;;;;;;;0.41;55.53;100918.31;4400558;32;34061;-83
2022/01/16 03:16:39;;;;;;;20.67;7.93;;;;;;;0.36;55.58;100925.88;4410642;32;33663;-82
2022/01/16 03:21:54;;;;;;;22.05;8.65;;;;;;;0.18;55.81;100912.78;4412562;32;34537;-83
2022/01/16 03:24:25;;;;;;;20.00;7.95;;;;;;;0.29;55.79;100909.28;4423859;32;32188;-83
2022/01/16 03:27:02;;;;;;;22.77;8.20;;;;;;;0.16;55.91;100903.91;4398673;32;33129;-83
2022/01/16 03:29:31;;;;;;;19.20;8.05;;;;;;;0.16;56.02;100908.44;4409936;32;33558;-83
2022/01/16 03:32:00;;;;;;;18.23;8.27;;;;;;;0.30;55.55;100909.16;4398242;32;32413;-83
2022/01/16 03:34:30;;;;;;;18.57;7.97;;;;;;;0.11;55.51;100908.78;4411113;32;33297;-82
2022/01/16 03:37:01;;;;;;;19.60;8.27;;;;;;;0.22;55.27;100905.31;4410954;32;32337;-82
2022/01/16 03:39:28;;;;;;;19.30;9.27;;;;;;;0.34;55.27;100909.81;4398287;32;32488;-82
2022/01/16 03:42:00;;;;;;;20.60;9.13;;;;;;;0.12;55.88;100905.13;4410889;32;32430;-82
2022/01/16 03:44:34;;;;;;;25.07;9.83;;;;;;;0.08;55.98;100905.44;4411666;32;32428;-82
2022/01/16 03:47:05;;;;;;;19.23;9.53;;;;;;;0.14;56.17;100903.16;4423857;32;34560;-83
2022/01/16 03:49:32;;;;;;;21.17;9.80;;;;;;;0.05;56.21;100902.97;4423337;32;34288;-83
2022/01/16 03:52:00;;;;;;;22.80;10.10;;;;;;;0.14;55.81;100900.47;4411045;32;34701;-83
2022/01/16 03:54:31;;;;;;;25.33;9.47;;;;;;;-0.12;56.78;100894.31;4410620;32;31822;-82
2022/01/16 03:57:01;;;;;;;25.90;9.40;;;;;;;0.00;56.28;100897.94;4410912;32;33936;-82
2022/01/16 03:59:29;;;;;;;22.23;8.93;;;;;;;0.20;55.29;100891.91;4410609;32;33219;-83
2022/01/16 04:01:59;;;;;;;22.13;8.40;;;;;;;0.33;54.88;100881.94;4411001;32;34156;-83
2022/01/16 04:04:30;;;;;;;22.75;9.52;;;;;;;0.16;55.34;100886.88;4410968;32;33971;-87
2022/01/16 04:07:01;;;;;;;23.70;9.63;;;;;;;-0.01;55.74;100885.44;4423715;32;32206;-78
2022/01/16 04:09:29;;;;;;;23.12;10.02;;;;;;;0.01;55.65;100883.44;4410215;32;33005;-78
2022/01/16 04:12:01;;;;;;;20.83;9.30;;;;;;;-0.19;56.21;100881.37;4398234;32;33453;-77
2022/01/16 04:17:17;;;;;;;16.75;8.18;;;;;;;-0.15;56.05;100885.56;4413039;32;33364;-78
2022/01/16 04:19:47;;;;;;;22.62;8.73;;;;;;;-0.20;56.16;100885.03;4435545;32;35482;-78
2022/01/16 04:22:15;;;;;;;20.97;8.30;;;;;;;-0.39;56.91;100883.66;4411049;32;33012;-78
2022/01/16 04:24:48;;;;;;;21.20;8.73;;;;;;;-0.27;56.25;100890.00;4423269;32;32234;-78
2022/01/16 04:27:19;;;;;;;21.27;8.52;;;;;;;-0.07;55.61;100885.88;4410765;32;34567;-78
2022/01/16 04:29:53;;;;;;;22.67;9.75;;;;;;;-0.25;56.08;100884.50;4411906;32;34322;-78
2022/01/16 04:32:24;;;;;;;20.60;9.07;;;;;;;-0.36;56.10;100894.22;4411510;32;34845;-78
2022/01/16 04:34:55;;;;;;;23.35;8.75;;;;;;;-0.21;55.62;100894.97;4410816;32;33533;-78
2022/01/16 04:37:25;;;;;;;23.20;9.47;;;;;;;-0.40;55.93;100895.41;4411011;32;32155;-78
2022/01/16 04:40:00;;;;;;;22.07;10.83;;;;;;;-0.34;56.19;100886.03;4423689;32;35163;-78
2022/01/16 04:45:22;;;;;;;22.67;9.80;;;;;;;-0.08;55.28;100903.91;4421666;32;31701;-77
2022/01/16 04:47:55;;;;;;;24.23;9.90;;;;;;;-0.07;55.21;100888.56;4411301;32;33476;-78
2022/01/16 04:50:27;;;;;;;19.90;9.00;;;;;;;-0.39;56.09;100885.50;4422727;32;33099;-78
2022/01/16 04:52:55;;;;;;;23.62;10.48;;;;;;;-0.39;56.66;100896.28;4410648;32;33913;-78
2022/01/16 04:55:28;;;;;;;20.45;9.65;;;;;;;-0.17;55.75;100879.41;4423138;32;33438;-78
2022/01/16 04:57:56;;;;;;;25.00;10.47;;;;;;;-0.40;56.41;100876.53;4423051;32;32352;-78
2022/01/16 05:00:29;;;;;;;28.00;10.07;;;;;;;-0.32;55.88;100869.72;4423333;32;33060;-78
2022/01/16 05:02:56;;;;;;;21.00;9.90;;;;;;;-0.36;55.76;100878.03;4410382;32;34046;-78
2022/01/16 05:05:27;;;;;;;24.23;9.63;;;;;;;-0.43;55.60;100876.75;4410234;32;31876;-78
2022/01/16 05:07:55;;;;;;;24.33;10.55;;;;;;;-0.39;55.32;100875.56;4410117;32;32180;-78
2022/01/16 05:10:28;;;;;;;24.58;10.52;;;;;;;-0.38;55.54;100877.28;4423014;32;35406;-78
2022/01/16 05:13:15;;;;;;;25.20;10.10;;;;;;;-0.17;54.89;100877.59;4410551;32;34864;-78
2022/01/16 05:18:33;;;;;;;21.53;11.00;;;;;;;-0.52;56.07;100877.41;4425037;32;32178;-78
2022/01/16 05:21:01;;;;;;;24.87;10.93;;;;;;;-0.36;55.51;100869.09;4410071;32;32474;-77
2022/01/16 05:23:29;;;;;;;26.30;11.77;;;;;;;-0.41;55.60;100872.13;4410237;32;33177;-77
2022/01/16 05:25:56;;;;;;;22.97;12.30;;;;;;;-0.27;55.39;100865.72;4422967;32;34112;-78
2022/01/16 05:28:24;;;;;;;28.13;13.87;;;;;;;-0.60;56.14;100863.63;4410080;32;33988;-77
2022/01/16 05:30:58;;;;;;;28.87;14.10;;;;;;;-0.85;56.99;100866.34;4422739;32;32788;-78
2022/01/16 05:33:26;;;;;;;30.23;13.37;;;;;;;-0.57;56.10;100887.66;4409933;32;34023;-77
2022/01/16 05:35:59;;;;;;;29.00;15.23;;;;;;;-0.54;55.85;100875.81;4410165;32;34408;-78
2022/01/16 05:38:27;;;;;;;31.92;14.80;;;;;;;-0.25;55.05;100868.31;4409971;32;33123;-78
2022/01/16 05:40:54;;;;;;;31.80;15.47;;;;;;;-0.47;55.30;100883.34;4422718;32;34382;-77
2022/01/16 05:43:25;;;;;;;33.33;16.57;;;;;;;-0.47;55.44;100877.09;4422584;32;32548;-77
2022/01/16 05:45:53;;;;;;;26.43;14.80;;;;;;;-0.58;55.82;100879.69;4409683;32;32036;-77
2022/01/16 05:48:27;;;;;;;28.57;14.23;;;;;;;-0.54;55.72;100891.97;4409983;32;33276;-77
2022/01/16 05:50:56;;;;;;;28.87;14.45;;;;;;;-0.51;55.73;100891.75;4422570;32;32873;-77
2022/01/16 05:53:23;;;;;;;25.80;13.90;;;;;;;-0.69;56.13;100896.62;4410149;32;33923;-77
2022/01/16 05:55:55;;;;;;;34.80;13.50;;;;;;;-0.54;55.47;100895.53;4410168;32;33030;-77
2022/01/16 05:58:26;;;;;;;26.90;13.43;;;;;;;-0.79;56.32;100903.66;4410462;32;33695;-78
2022/01/16 06:00:59;;;;;;;29.07;13.93;;;;;;;-0.47;55.66;100912.16;4410262;32;34458;-77
2022/01/16 06:03:29;;;;;;;25.90;14.67;;;;;;;-0.61;55.89;100913.09;4410523;32;34657;-77
2022/01/16 06:05:59;;;;;;;30.90;14.73;;;;;;;-0.84;56.54;100905.78;4423695;32;34221;-77
2022/01/16 06:08:30;;;;;;;34.67;16.27;;;;;;;-0.55;55.76;100901.91;4407189;32;34477;-77
2022/01/16 06:11:01;;;;;;;34.90;15.17;;;;;;;-0.62;55.71;100911.37;4407622;32;32948;-77
2022/01/16 06:13:32;;;;;;;32.90;15.30;;;;;;;-0.65;55.47;100917.03;4407512;32;34203;-77
2022/01/16 06:16:05;;;;;;;39.43;18.57;;;;;;;-0.70;55.65;100906.56;4407488;32;32051;-77
2022/01/16 06:18:36;;;;;;;39.80;17.07;;;;;;;-0.71;55.50;100912.06;4432439;32;34615;-77
2022/01/16 06:21:09;;;;;;;48.07;19.80;;;;;;;-0.47;55.02;100912.16;4407111;32;35311;-77
2022/01/16 06:23:40;;;;;;;50.00;20.45;;;;;;;-0.58;55.13;100912.91;4421081;32;33895;-77
2022/01/16 06:26:14;;;;;;;37.07;17.87;;;;;;;-0.53;55.01;100924.22;4432208;32;34107;-77
2022/01/16 06:28:45;;;;;;;37.23;18.17;;;;;;;-0.73;55.04;100922.09;4406894;32;32576;-77
2022/01/16 06:31:15;;;;;;;37.47;18.07;;;;;;;-0.72;54.89;100926.50;4406991;32;33990;-78
2022/01/16 06:33:43;;;;;;;43.13;19.37;;;;;;;-0.66;54.72;100920.69;4419623;32;33873;-77
2022/01/16 06:36:16;;;;;;;44.90;20.43;;;;;;;-0.63;54.98;100924.97;4406882;32;32100;-77
2022/01/16 06:38:45;;;;;;;47.57;21.47;;;;;;;-0.65;54.86;100919.72;4407101;32;33412;-77
2022/01/16 06:41:13;;;;;;;46.07;22.93;;;;;;;-0.82;55.30;100920.03;4419250;32;34087;-77
2022/01/16 06:43:44;;;;;;;46.27;22.33;;;;;;;-1.06;56.19;100928.81;4406992;32;33966;-77
2022/01/16 06:46:18;;;;;;;50.70;25.07;;;;;;;-0.58;55.16;100925.50;4407547;32;34273;-78
2022/01/16 06:48:46;;;;;;;49.40;23.40;;;;;;;-0.76;55.42;100925.00;4406948;32;33246;-79
2022/01/16 06:51:20;;;;;;;49.13;23.13;;;;;;;-0.81;55.39;100922.63;4419400;32;34633;-79
2022/01/16 06:53:53;;;;;;;48.28;22.92;;;;;;;-0.63;54.95;100920.44;4419091;32;34648;-79
2022/01/16 06:56:22;;;;;;;47.60;23.07;;;;;;;-0.80;55.51;100918.94;4419598;32;34285;-79
2022/01/16 06:58:50;;;;;;;44.30;23.43;;;;;;;-0.68;55.38;100922.63;4406857;32;33920;-79
2022/01/16 07:01:33;;;;;;;47.37;24.03;;;;;;;-0.75;55.68;100921.31;4408091;32;32920;-79
2022/01/16 07:04:05;;;;;;;44.47;22.50;;;;;;;-0.88;56.06;100915.06;4406440;32;32464;-78
2022/01/16 07:06:39;;;;;;;51.00;24.00;;;;;;;-0.92;56.75;100913.53;4419274;32;31807;-78
2022/01/16 07:09:12;;;;;;;43.13;24.40;;;;;;;-1.05;56.67;100919.78;4406494;32;33734;-77
2022/01/16 07:11:43;;;;;;;52.87;23.83;;;;;;;-0.80;56.21;100913.56;4405646;32;33909;-77
2022/01/16 07:14:11;;;;;;;57.63;27.63;;;;;;;-0.68;55.82;100915.41;4406587;32;32439;-77
2022/01/16 07:16:38;;;;;;;58.10;26.43;;;;;;;-0.54;58.96;100916.25;4406341;32;31927;-77
2022/01/16 07:19:07;;;;;;;78.27;33.93;;;;;;;-0.47;57.63;100925.63;4406301;32;33772;-77
2022/01/16 07:21:34;;;;;;;71.70;34.83;;;;;;;-0.42;56.66;100929.72;4406251;32;33014;-76
2022/01/16 07:24:05;;;;;;;70.10;34.10;;;;;;;-0.20;55.90;100939.84;4406349;32;33451;-77
2022/01/16 07:26:33;;;;;;;67.83;31.87;;;;;;;-0.65;56.45;100937.72;4419105;32;34101;-77
2022/01/16 07:29:01;;;;;;;64.73;32.70;;;;;;;-0.74;57.00;100955.41;4418804;32;32136;-78
2022/01/16 07:31:31;;;;;;;68.97;33.20;;;;;;;-0.60;56.47;100947.19;4406190;32;34447;-76
2022/01/16 07:33:59;;;;;;;64.67;30.20;;;;;;;-0.44;55.86;100946.97;4406327;32;34019;-77
2022/01/16 07:36:27;;;;;;;64.47;29.63;;;;;;;-0.57;56.46;100946.97;4418894;32;33520;-77
2022/01/16 07:38:55;;;;;;;61.17;27.23;;;;;;;-0.63;56.55;100936.62;4406244;32;33874;-75
2022/01/16 07:41:22;;;;;;;50.37;25.97;;;;;;;-0.44;56.23;100937.06;4406523;32;34479;-75
2022/01/16 07:43:50;;;;;;;52.00;23.97;;;;;;;-0.31;56.10;100937.06;4418737;32;32421;-77
2022/01/16 07:46:18;;;;;;;46.90;23.53;;;;;;;0.15;69.29;100949.91;4406234;32;33046;-77
2022/01/16 07:48:46;;;;;;;44.05;20.80;;;;;;;0.27;66.69;100947.19;4418994;32;34722;-79
2022/01/16 07:51:17;;;;;;;42.83;22.30;;;;;;;0.10;64.20;100950.25;4418629;32;34382;-78
2022/01/16 07:53:44;;;;;;;42.42;21.17;;;;;;;-0.08;61.30;100951.59;4405694;32;32516;-77
2022/01/16 07:56:13;;;;;;;43.13;21.33;;;;;;;-0.20;59.00;100952.47;4408216;32;33501;-77
2022/01/16 07:58:42;;;;;;;48.50;21.50;;;;;;;0.16;57.56;100941.72;4408755;32;32845;-77
2022/01/16 08:01:10;;;;;;;45.23;20.33;;;;;;;0.01;57.39;100937.41;4408171;32;34937;-78
2022/01/16 08:03:38;;;;;;;38.83;19.87;;;;;;;-0.25;57.70;100931.22;4420776;32;33119;-77
2022/01/16 08:06:06;;;;;;;42.33;20.47;;;;;;;-0.23;57.63;100936.50;4407846;32;34422;-77
2022/01/16 08:08:33;;;;;;;41.60;20.30;;;;;;;0.03;56.91;100935.47;4420570;32;33459;-79
2022/01/16 08:11:01;;;;;;;45.10;22.17;;;;;;;-0.06;56.94;100918.16;4407995;32;32854;-79
2022/01/16 08:13:29;;;;;;;55.90;31.77;;;;;;;-0.18;57.33;100923.56;4408188;32;34331;-78
2022/01/16 08:15:56;;;;;;;48.20;25.10;;;;;;;-0.19;57.49;100917.31;4395584;32;32840;-79
2022/01/16 08:18:24;;;;;;;37.43;19.07;;;;;;;-0.05;57.25;100914.47;4420362;32;32164;-78
2022/01/16 08:20:54;;;;;;;38.90;18.73;;;;;;;0.09;56.80;100912.56;4420301;32;33432;-78
2022/01/16 08:23:21;;;;;;;44.53;21.03;;;;;;;0.05;57.14;100917.34;4420700;32;33952;-78
2022/01/16 08:25:49;;;;;;;47.95;21.60;;;;;;;0.28;56.46;100918.34;4420686;32;33300;-76
2022/01/16 08:28:17;;;;;;;45.87;21.13;;;;;;;0.31;56.74;100921.69;4407522;32;33934;-79
2022/01/16 08:30:45;;;;;;;46.00;20.97;;;;;;;0.55;62.60;100905.50;4407818;32;34386;-78
2022/01/16 08:33:13;;;;;;;49.90;21.77;;;;;;;0.40;59.95;100906.66;4405063;32;33408;-78
2022/01/16 08:35:41;;;;;;;49.27;21.73;;;;;;;0.54;58.23;100902.91;4398160;32;33407;-78
2022/01/16 08:38:10;;;;;;;45.03;21.17;;;;;;;0.48;57.68;100895.28;4386535;32;33296;-78
2022/01/16 08:40:42;;;;;;;41.67;21.57;;;;;;;0.71;56.55;100882.72;4398000;32;34630;-78
2022/01/16 08:43:09;;;;;;;40.93;20.43;;;;;;;0.59;57.09;100885.38;4404060;32;33012;-80
2022/01/16 08:45:41;;;;;;;43.22;20.92;;;;;;;0.33;57.69;100878.38;4392692;32;33243;-79
2022/01/16 08:48:11;;;;;;;44.65;21.67;;;;;;;0.35;57.90;100865.62;4380100;32;32475;-79
2022/01/16 08:50:39;;;;;;;47.78;23.17;;;;;;;0.44;57.79;100869.47;4408325;32;35435;-79
2022/01/16 08:53:11;;;;;;;46.00;21.17;;;;;;;0.39;58.54;100871.66;4408531;32;33426;-79
2022/01/16 08:55:44;;;;;;;44.63;20.97;;;;;;;0.42;58.50;100864.19;4400142;32;33342;-80
2022/01/16 08:58:12;;;;;;;42.78;21.80;;;;;;;0.80;57.77;100855.84;4406031;32;34748;-80
2022/01/16 09:00:43;;;;;;;45.00;22.58;;;;;;;0.53;58.82;100864.25;4407701;32;34264;-79
2022/01/16 09:03:11;;;;;;;41.85;22.73;;;;;;;0.38;59.31;100851.91;4395266;32;33855;-79
2022/01/16 09:05:39;;;;;;;48.58;23.02;;;;;;;0.49;59.38;100860.06;4395152;32;33230;-80
2022/01/16 09:08:10;;;;;;;48.40;23.53;;;;;;;0.68;59.17;100853.22;4401505;32;32796;-80
2022/01/16 09:10:37;;;;;;;43.50;22.37;;;;;;;0.76;59.33;100851.66;4398721;32;34089;-80
2022/01/16 09:13:05;;;;;;;41.00;19.77;;;;;;;0.87;59.07;100856.25;4406770;32;34529;-79
2022/01/16 09:15:34;;;;;;;47.53;24.97;;;;;;;0.83;59.02;100852.91;4407629;32;33234;-79
2022/01/16 09:18:04;;;;;;;43.42;22.13;;;;;;;1.09;58.27;100852.75;4407614;32;32188;-80
2022/01/16 09:20:33;;;;;;;47.97;22.50;;;;;;;1.20;58.04;100852.75;4401429;32;34493;-80
2022/01/16 09:23:03;;;;;;;43.40;21.20;;;;;;;0.84;59.11;100854.63;4406617;32;33376;-80
2022/01/16 09:25:31;;;;;;;56.25;31.15;;;;;;;1.02;58.86;100862.31;4392394;32;32091;-80
2022/01/16 09:27:59;;;;;;;45.40;25.27;;;;;;;0.75;59.53;100855.34;4392449;32;34239;-80
2022/01/16 09:30:28;;;;;;;46.53;22.07;;;;;;;0.86;59.56;100858.09;4396356;32;296428;-81
2022/01/16 09:33:03;;;;;;;113.90;47.30;;;;;;;0.98;59.02;100848.16;4392539;32;34056;-80
2022/01/16 09:35:33;;;;;;;308.77;118.80;;;;;;;0.96;61.07;100840.19;4392486;32;34421;-82
2022/01/16 09:38:05;;;;;;;144.35;62.38;;;;;;;1.23;60.12;100842.56;4397363;32;33118;-80
2022/01/16 09:40:46;;;;;;;56.27;27.03;;;;;;;1.52;60.56;100832.09;4394009;32;34038;-81
2022/01/16 09:43:20;;;;;;;38.75;21.37;;;;;;;1.60;59.18;100826.09;4407146;32;32994;-86
2022/01/16 09:45:53;;;;;;;43.77;22.03;;;;;;;1.63;58.28;100826.69;4407074;32;31724;-81
2022/01/16 09:48:23;;;;;;;42.10;20.83;;;;;;;1.62;58.41;100818.69;4412901;32;32414;-80
2022/01/16 09:50:52;;;;;;;44.60;21.20;;;;;;;1.79;58.06;100825.47;4410410;32;32725;-80
2022/01/16 09:53:23;;;;;;;52.10;26.40;;;;;;;1.86;59.73;100823.97;4422149;32;34138;-81
2022/01/16 09:56:21;;;;;;;40.42;21.48;;;;;;;1.81;59.75;100824.34;4403762;32;32973;-81
2022/01/16 09:59:27;;;;;;;41.87;20.40;;;;;;;1.97;58.24;100816.66;4388307;32;33883;-81
2022/01/16 10:02:02;;;;;;;43.70;22.73;;;;;;;2.02;57.43;100813.56;4385689;32;33789;-80
2022/01/16 10:05:35;;;;;;;49.33;24.53;;;;;;;1.86;57.45;100808.59;4393946;32;34391;-81
2022/01/16 10:09:06;;;;;;;57.38;28.00;;;;;;;2.07;57.10;100805.94;4394120;32;31719;-80
2022/01/16 10:16:17;;;;;;;44.85;23.67;;;;;;;2.36;55.36;100792.66;4403200;32;34551;-81
2022/01/16 10:19:21;;;;;;;45.10;22.15;;;;;;;2.28;55.07;100795.16;4353089;32;33367;-80
2022/01/16 10:26:05;;;;;;;42.47;21.15;;;;;;;2.40;54.78;100779.72;4350242;32;33349;-81
2022/01/16 10:29:17;;;;;;;45.85;23.25;;;;;;;2.36;54.54;100780.97;4342927;32;33428;-80
2022/01/16 10:32:17;;;;;;;52.17;29.37;;;;;;;2.50;54.46;100776.13;4345064;32;32343;-80
2022/01/16 10:35:25;;;;;;;47.10;23.15;;;;;;;2.62;54.19;100779.59;4346091;32;32459;-80
2022/01/16 10:38:12;;;;;;;46.00;26.00;;;;;;;2.52;54.35;100773.28;4352003;32;34054;-81
2022/01/16 10:40:59;;;;;;;60.90;32.05;;;;;;;2.61;54.12;100781.44;4332103;32;34238;-80
2022/01/16 10:43:40;;;;;;;50.63;28.85;;;;;;;2.86;54.67;100769.34;4350832;32;33731;-79
2022/01/16 10:46:12;;;;;;;55.92;27.87;;;;;;;2.71;54.46;100767.97;4342395;32;33246;-79
2022/01/16 10:49:30;;;;;;;46.72;25.05;;;;;;;2.98;53.70;100764.72;4386318;32;34404;-80
2022/01/16 10:52:09;;;;;;;44.85;24.05;;;;;;;3.03;53.52;100753.47;4383179;32;33877;-79
2022/01/16 10:54:51;;;;;;;47.20;23.00;;;;;;;2.75;54.03;100769.41;4410597;32;34091;-79
2022/01/16 10:57:27;;;;;;;44.78;22.48;;;;;;;2.69;54.75;100771.81;4391461;32;32831;-80
2022/01/16 11:00:11;;;;;;;41.25;21.23;;;;;;;2.64;54.97;100766.78;4387240;32;33729;-80
2022/01/16 11:02:43;;;;;;;47.67;25.00;;;;;;;2.89;54.32;100766.37;4387290;32;34830;-80
2022/01/16 11:05:17;;;;;;;48.40;24.80;;;;;;;2.84;54.22;100765.91;4397872;32;32221;-81
2022/01/16 11:07:56;;;;;;;42.75;22.70;;;;;;;3.07;53.81;100772.06;4411349;32;33271;-81
2022/01/16 11:10:30;;;;;;;51.90;24.83;;;;;;;3.18;53.67;100761.12;4404018;32;33907;-81
2022/01/16 11:13:01;;;;;;;42.85;22.90;;;;;;;3.36;53.44;100758.59;4420596;32;34326;-80
2022/01/16 11:15:30;;;;;;;50.70;26.00;;;;;;;3.43;53.26;100751.63;4408125;32;33832;-80
2022/01/16 11:18:10;;;;;;;47.80;24.85;;;;;;;3.45;53.05;100751.50;4407989;32;33435;-80
2022/01/16 11:20:51;;;;;;;51.17;23.52;;;;;;;3.59;57.11;100746.56;4408326;32;32139;-80
2022/01/16 11:25:59;;;;;;;50.28;27.20;;;;;;;3.71;54.02;100730.16;4407566;32;34649;-80
2022/01/16 11:28:30;;;;;;;50.00;28.00;;;;;;;3.74;53.37;100729.88;4409116;32;33055;-78
2022/01/16 11:31:10;;;;;;;56.47;27.55;;;;;;;3.78;53.15;100728.59;4409989;32;33003;-78
2022/01/16 11:33:42;;;;;;;44.72;20.08;;;;;;;3.83;53.32;100720.91;4407147;32;34395;-78
2022/01/16 11:36:31;;;;;;;44.28;21.58;;;;;;;3.84;53.07;100715.31;4410345;32;33907;-79
2022/01/16 11:39:11;;;;;;;42.70;20.30;;;;;;;3.81;55.00;100704.75;4421504;32;33132;-78
2022/01/16 11:41:55;;;;;;;38.97;19.08;;;;;;;3.94;53.46;100699.88;4409570;32;32218;-78
2022/01/16 11:44:34;;;;;;;39.63;19.33;;;;;;;3.97;53.15;100701.44;4397775;32;33980;-80
2022/01/16 11:47:09;;;;;;;38.85;19.92;;;;;;;4.01;53.01;100694.72;4410105;32;34104;-81
2022/01/16 11:49:44;;;;;;;37.35;19.30;;;;;;;3.96;52.68;100691.59;4410325;32;32717;-80
2022/01/16 11:52:21;;;;;;;34.88;18.55;;;;;;;3.88;54.80;100696.91;4395358;32;32307;-80
2022/01/16 11:55:06;;;;;;;39.72;19.73;;;;;;;3.90;53.54;100692.19;4395497;32;32256;-81
2022/01/16 11:57:36;;;;;;;;;;;;;;;3.89;53.31;100687.75;4397950;32;32445;-79
2022/01/16 12:00:16;;;;;;;70.37;44.05;;;;;;;4.64;73.11;100686.94;4419976;32;31801;-79
2022/01/16 12:02:59;;;;;;;42.47;20.65;;;;;;;4.86;64.86;100683.88;4421511;32;34587;-79
2022/01/16 12:05:28;;;;;;;47.53;23.17;;;;;;;4.42;54.38;100682.72;4405960;32;32859;-78
2022/01/16 12:08:26;;;;;;;48.50;22.35;;;;;;;4.20;57.08;100683.00;4402776;32;33888;-76
2022/01/16 12:10:57;;;;;;;59.15;31.30;;;;;;;4.19;54.27;100665.00;4389479;32;32833;-81
2022/01/16 12:13:49;;;;;;;58.47;32.90;;;;;;;4.45;55.44;100657.97;4400494;32;33696;-80
2022/01/16 12:16:38;;;;;;;50.78;25.73;;;;;;;4.36;53.02;100649.81;4418897;32;34515;-81
2022/01/16 12:19:33;;;;;;;40.92;20.65;;;;;;;4.13;53.18;100654.72;4416034;32;32511;-80
2022/01/16 12:22:01;;;;;;;40.20;18.75;;;;;;;4.30;52.66;100652.12;4427691;32;33430;-79
2022/01/16 12:25:03;;;;;;;41.03;20.95;;;;;;;4.15;52.55;100648.13;4401201;32;32373;-81
2022/01/16 12:28:10;;;;;;;44.40;23.10;;;;;;;4.37;52.30;100646.09;4396720;32;34085;-79
2022/01/16 12:31:16;;;;;;;46.70;24.50;;;;;;;4.34;52.21;100651.81;4402280;32;33804;-80
2022/01/16 12:33:50;;;;;;;41.30;19.85;;;;;;;4.27;53.08;100646.97;4376613;32;33753;-80
2022/01/16 12:36:32;;;;;;;42.72;22.52;;;;;;;4.27;52.47;100638.81;4401380;32;33514;-79
2022/01/16 12:39:07;;;;;;;39.58;20.02;;;;;;;4.50;54.34;100643.94;4415177;32;33062;-83
2022/01/16 12:41:46;;;;;;;41.35;23.30;;;;;;;4.32;52.98;100637.53;4399027;32;32488;-79